Aérodrome :
LOGIN :

S'inscrire | Disclaimer

   EN    FR    IT 

 










Légende :    VFR   VFR Marginal   IFR   IFR Intensif   IFR Très Intensif
Visi : 
Plafond : 
>= 8 km
>= 3000ft
5 à 8 km
1000 à 3000 ft
1500m à 5 km
500 à 1000 ft
800 à 1500m
200 à 500 ft
< 800m
< 200 ft
Symboles :   Orages  Brouillard  Fortes neiges  Fortes précipitations  Vent > 20 kt
SIGMETs :   Divers  Orages  Givrage  Turbulence  Onde Orograph.  Cendres Volcan.







- Altitude de l'aérodrome : 302 ft
- Code IATA : CGN


EDDK - Cologne Bonn

DERNIER METAR :
  • 140350Z 25010KT 9999 -RA FEW010 BKN015 04/02 Q0990 TEMPO 22015G25KT

METARs EXPIRÉS :
  • 140320Z 22015KT 9999 -RA FEW005 BKN013 03/02 Q0990 RERA TEMPO 22020G35KT BKN020
  • 140250Z 20013G24KT 160V250 8000 RA FEW006 BKN013 BKN060 04/02 Q0990 TEMPO 22020G35KT
  • 140220Z 17008KT 9999 FEW038 BKN090 05/02 Q0990 TEMPO 22020G35KT SHRA BKN012CB
  • 140150Z 20008KT 9999 FEW027 BKN100 05/02 Q0990 TEMPO SHRA BKN012CB
  • 140120Z 25005KT 9999 FEW022 BKN150 04/02 Q0991 NOSIG

TAF TAF EDDK
Valide du 14 à 00h jusqu'au 15 à 06h UTC


132300Z 1400/1506 23010KT 9999 BKN030
TEMPO 1403/1407 24015G25KT SHRASN BKN012CB
PROB30
TEMPO 1403/1407 25020G35KT TSRA
PROB30
TEMPO 1410/1414 23015G25KT
BECMG 1416/1419 19005KT
TEMPO 1421/1504 SHRASN BKN020CB
Pas de NOTAMs connus pour ce terrain.
1 SIGMET publié pour la FIR Langen (EDGG) :
 
Turbulence forte
EDGG SIGMET 1 VALID 140200/140500 EDZF
EDGG LANGEN FIR SEV TURB FCST S OF N4930 SFC/5000FT MOV E NC=



MET'MAP, la Météo Aéronautique d'un coup d'oeil ! - Copyright ORBIFLY Décembre 2007 - Disclaimer

ORBIFLY MET'MAP TEAM :

Programmation & Développement : Alexandra Zaïnal
Conception & Développement : Baudouin d'Aumeries
Co-Programmation & Développement : Marc-Olivier Méhu
Soutien technique & logistique : Manuel Goepfert

Contact : metmap@orbifly.com




SOURCES & CREDITS :

   NOAA